sensor_id;sensor_type;location;lat;lon;timestamp;temperature;humidity
64817;DHT22;53289;45.602;11.904;2023-02-23T00:00:18;9.10;76.40
64817;DHT22;53289;45.602;11.904;2023-02-23T00:02:56;9.10;76.40
64817;DHT22;53289;45.602;11.904;2023-02-23T00:05:28;9.10;76.20
64817;DHT22;53289;45.602;11.904;2023-02-23T00:07:54;9.10;76.30
64817;DHT22;53289;45.602;11.904;2023-02-23T00:10:21;9.10;76.30
64817;DHT22;53289;45.602;11.904;2023-02-23T00:12:51;9.20;76.20
64817;DHT22;53289;45.602;11.904;2023-02-23T00:15:16;9.20;76.30
64817;DHT22;53289;45.602;11.904;2023-02-23T00:17:43;9.20;76.30
64817;DHT22;53289;45.602;11.904;2023-02-23T00:20:11;9.20;76.20
64817;DHT22;53289;45.602;11.904;2023-02-23T00:22:38;9.10;76.20
64817;DHT22;53289;45.602;11.904;2023-02-23T00:25:09;9.10;76.30
64817;DHT22;53289;45.602;11.904;2023-02-23T00:27:36;9.10;76.20
64817;DHT22;53289;45.602;11.904;2023-02-23T00:30:13;9.00;76.50
64817;DHT22;53289;45.602;11.904;2023-02-23T00:32:39;9.00;76.70
64817;DHT22;53289;45.602;11.904;2023-02-23T00:35:06;9.00;76.70
64817;DHT22;53289;45.602;11.904;2023-02-23T00:37:44;9.00;76.80
64817;DHT22;53289;45.602;11.904;2023-02-23T00:40:14;8.90;77.10
64817;DHT22;53289;45.602;11.904;2023-02-23T00:42:44;8.90;76.90
64817;DHT22;53289;45.602;11.904;2023-02-23T00:45:14;8.90;76.90
64817;DHT22;53289;45.602;11.904;2023-02-23T00:47:42;8.90;76.90
64817;DHT22;53289;45.602;11.904;2023-02-23T00:50:10;8.90;77.00
64817;DHT22;53289;45.602;11.904;2023-02-23T00:52:39;8.80;77.20
64817;DHT22;53289;45.602;11.904;2023-02-23T00:55:07;8.80;77.40
64817;DHT22;53289;45.602;11.904;2023-02-23T00:57:33;8.80;77.40
64817;DHT22;53289;45.602;11.904;2023-02-23T00:59:59;8.80;77.40
64817;DHT22;53289;45.602;11.904;2023-02-23T01:02:27;8.80;77.50
64817;DHT22;53289;45.602;11.904;2023-02-23T01:04:55;8.80;77.50
64817;DHT22;53289;45.602;11.904;2023-02-23T01:07:21;8.90;77.50
64817;DHT22;53289;45.602;11.904;2023-02-23T01:09:50;8.90;77.30
64817;DHT22;53289;45.602;11.904;2023-02-23T01:12:16;8.90;77.20
64817;DHT22;53289;45.602;11.904;2023-02-23T01:14:42;8.90;77.20
64817;DHT22;53289;45.602;11.904;2023-02-23T01:17:08;8.90;77.30
64817;DHT22;53289;45.602;11.904;2023-02-23T01:19:34;8.80;77.20
64817;DHT22;53289;45.602;11.904;2023-02-23T01:22:00;8.80;77.30
64817;DHT22;53289;45.602;11.904;2023-02-23T01:24:27;8.80;77.50
64817;DHT22;53289;45.602;11.904;2023-02-23T01:26:54;8.70;77.50
64817;DHT22;53289;45.602;11.904;2023-02-23T01:29:20;8.70;77.50
64817;DHT22;53289;45.602;11.904;2023-02-23T01:31:48;8.80;77.70
64817;DHT22;53289;45.602;11.904;2023-02-23T01:34:15;8.70;77.50
64817;DHT22;53289;45.602;11.904;2023-02-23T01:36:43;8.70;77.50
64817;DHT22;53289;45.602;11.904;2023-02-23T01:39:14;8.70;77.60
64817;DHT22;53289;45.602;11.904;2023-02-23T01:41:40;8.70;77.70
64817;DHT22;53289;45.602;11.904;2023-02-23T01:46:55;8.70;77.60
64817;DHT22;53289;45.602;11.904;2023-02-23T01:49:27;8.60;77.50
64817;DHT22;53289;45.602;11.904;2023-02-23T01:52:02;8.60;77.50
64817;DHT22;53289;45.602;11.904;2023-02-23T01:54:38;8.60;77.50
64817;DHT22;53289;45.602;11.904;2023-02-23T01:57:07;8.50;77.50
64817;DHT22;53289;45.602;11.904;2023-02-23T01:59:44;8.40;77.50
64817;DHT22;53289;45.602;11.904;2023-02-23T02:02:11;8.40;77.40
64817;DHT22;53289;45.602;11.904;2023-02-23T02:04:39;8.30;77.50
64817;DHT22;53289;45.602;11.904;2023-02-23T02:07:17;8.10;77.70
64817;DHT22;53289;45.602;11.904;2023-02-23T02:09:43;8.00;77.80
64817;DHT22;53289;45.602;11.904;2023-02-23T02:12:26;7.90;77.90
64817;DHT22;53289;45.602;11.904;2023-02-23T02:14:51;7.80;78.00
64817;DHT22;53289;45.602;11.904;2023-02-23T02:17:47;7.80;78.20
64817;DHT22;53289;45.602;11.904;2023-02-23T02:20:41;7.60;78.30
64817;DHT22;53289;45.602;11.904;2023-02-23T02:26:20;7.50;78.50
64817;DHT22;53289;45.602;11.904;2023-02-23T02:37:36;7.30;78.60
64817;DHT22;53289;45.602;11.904;2023-02-23T02:40:21;7.30;78.70
64817;DHT22;53289;45.602;11.904;2023-02-23T02:43:11;7.30;78.70
64817;DHT22;53289;45.602;11.904;2023-02-23T02:45:45;7.20;78.70
64817;DHT22;53289;45.602;11.904;2023-02-23T02:51:10;7.20;78.60
64817;DHT22;53289;45.602;11.904;2023-02-23T02:56:40;7.00;78.60
64817;DHT22;53289;45.602;11.904;2023-02-23T02:59:17;6.90;78.40
64817;DHT22;53289;45.602;11.904;2023-02-23T03:02:04;6.80;78.60
64817;DHT22;53289;45.602;11.904;2023-02-23T03:04:49;6.70;78.60
64817;DHT22;53289;45.602;11.904;2023-02-23T03:11:07;6.60;78.70
64817;DHT22;53289;45.602;11.904;2023-02-23T03:17:04;6.50;79.10
64817;DHT22;53289;45.602;11.904;2023-02-23T03:29:17;6.40;79.40
64817;DHT22;53289;45.602;11.904;2023-02-23T03:35:29;6.30;79.30
64817;DHT22;53289;45.602;11.904;2023-02-23T03:38:31;6.30;79.50
64817;DHT22;53289;45.602;11.904;2023-02-23T03:41:19;6.30;79.40
64817;DHT22;53289;45.602;11.904;2023-02-23T03:44:10;6.30;79.60
64817;DHT22;53289;45.602;11.904;2023-02-23T03:46:56;6.30;79.60
64817;DHT22;53289;45.602;11.904;2023-02-23T03:49:42;6.30;79.80
64817;DHT22;53289;45.602;11.904;2023-02-23T03:52:32;6.30;79.70
64817;DHT22;53289;45.602;11.904;2023-02-23T03:55:23;6.20;79.90
64817;DHT22;53289;45.602;11.904;2023-02-23T03:58:13;6.20;79.50
64817;DHT22;53289;45.602;11.904;2023-02-23T04:01:02;6.30;79.50
64817;DHT22;53289;45.602;11.904;2023-02-23T04:03:47;6.30;79.50
64817;DHT22;53289;45.602;11.904;2023-02-23T04:06:37;6.30;79.70
64817;DHT22;53289;45.602;11.904;2023-02-23T04:09:23;6.40;79.80
64817;DHT22;53289;45.602;11.904;2023-02-23T04:15:11;6.50;79.80
64817;DHT22;53289;45.602;11.904;2023-02-23T04:17:38;6.50;79.90
64817;DHT22;53289;45.602;11.904;2023-02-23T04:20:05;6.50;80.10
64817;DHT22;53289;45.602;11.904;2023-02-23T04:22:31;6.60;80.10
64817;DHT22;53289;45.602;11.904;2023-02-23T04:24:57;6.60;79.90
64817;DHT22;53289;45.602;11.904;2023-02-23T04:27:23;6.60;80.10
64817;DHT22;53289;45.602;11.904;2023-02-23T04:29:49;6.70;80.20
64817;DHT22;53289;45.602;11.904;2023-02-23T04:32:18;6.70;80.20
64817;DHT22;53289;45.602;11.904;2023-02-23T04:34:45;6.70;80.10
64817;DHT22;53289;45.602;11.904;2023-02-23T04:37:12;6.70;80.00
64817;DHT22;53289;45.602;11.904;2023-02-23T04:39:38;6.70;80.10
64817;DHT22;53289;45.602;11.904;2023-02-23T04:42:04;6.70;80.30
64817;DHT22;53289;45.602;11.904;2023-02-23T04:44:30;6.80;80.20
64817;DHT22;53289;45.602;11.904;2023-02-23T04:46:57;6.80;80.50
64817;DHT22;53289;45.602;11.904;2023-02-23T04:49:23;6.90;80.30
64817;DHT22;53289;45.602;11.904;2023-02-23T04:51:49;6.90;80.30
64817;DHT22;53289;45.602;11.904;2023-02-23T04:54:15;6.90;80.40
64817;DHT22;53289;45.602;11.904;2023-02-23T04:56:41;6.90;80.40
64817;DHT22;53289;45.602;11.904;2023-02-23T04:59:06;6.90;80.50
64817;DHT22;53289;45.602;11.904;2023-02-23T05:01:32;6.90;80.50
64817;DHT22;53289;45.602;11.904;2023-02-23T05:03:58;7.00;80.50
64817;DHT22;53289;45.602;11.904;2023-02-23T05:06:27;7.00;80.30
64817;DHT22;53289;45.602;11.904;2023-02-23T05:08:53;7.00;80.20
64817;DHT22;53289;45.602;11.904;2023-02-23T05:11:19;6.90;80.10
64817;DHT22;53289;45.602;11.904;2023-02-23T05:13:45;6.90;80.20
64817;DHT22;53289;45.602;11.904;2023-02-23T05:16:11;6.90;80.40
64817;DHT22;53289;45.602;11.904;2023-02-23T05:18:36;7.00;80.60
64817;DHT22;53289;45.602;11.904;2023-02-23T05:21:05;7.00;80.70
64817;DHT22;53289;45.602;11.904;2023-02-23T05:23:33;7.00;80.70
64817;DHT22;53289;45.602;11.904;2023-02-23T05:26:08;7.00;80.80
64817;DHT22;53289;45.602;11.904;2023-02-23T05:28:35;7.00;80.70
64817;DHT22;53289;45.602;11.904;2023-02-23T05:31:02;7.00;80.70
64817;DHT22;53289;45.602;11.904;2023-02-23T05:33:30;7.00;80.80
64817;DHT22;53289;45.602;11.904;2023-02-23T05:35:56;7.00;80.90
64817;DHT22;53289;45.602;11.904;2023-02-23T05:38:22;7.00;81.00
64817;DHT22;53289;45.602;11.904;2023-02-23T05:40:48;7.10;81.00
64817;DHT22;53289;45.602;11.904;2023-02-23T05:43:14;7.20;80.90
64817;DHT22;53289;45.602;11.904;2023-02-23T05:45:41;7.20;81.00
64817;DHT22;53289;45.602;11.904;2023-02-23T05:48:08;7.10;81.00
64817;DHT22;53289;45.602;11.904;2023-02-23T05:50:34;7.10;80.90
64817;DHT22;53289;45.602;11.904;2023-02-23T05:53:00;7.10;80.90
64817;DHT22;53289;45.602;11.904;2023-02-23T05:55:26;7.20;81.00
64817;DHT22;53289;45.602;11.904;2023-02-23T05:57:53;7.20;80.70
64817;DHT22;53289;45.602;11.904;2023-02-23T06:00:19;7.30;80.60
64817;DHT22;53289;45.602;11.904;2023-02-23T06:02:45;7.30;80.60
64817;DHT22;53289;45.602;11.904;2023-02-23T06:05:12;7.30;80.60
64817;DHT22;53289;45.602;11.904;2023-02-23T06:07:38;7.30;80.50
64817;DHT22;53289;45.602;11.904;2023-02-23T06:10:05;7.30;80.60
64817;DHT22;53289;45.602;11.904;2023-02-23T06:12:31;7.30;80.70
64817;DHT22;53289;45.602;11.904;2023-02-23T06:14:57;7.30;80.80
64817;DHT22;53289;45.602;11.904;2023-02-23T06:17:24;7.30;80.90
64817;DHT22;53289;45.602;11.904;2023-02-23T06:19:50;7.30;80.90
64817;DHT22;53289;45.602;11.904;2023-02-23T06:22:16;7.30;81.00
64817;DHT22;53289;45.602;11.904;2023-02-23T06:24:43;7.30;80.90
64817;DHT22;53289;45.602;11.904;2023-02-23T06:27:09;7.40;80.90
64817;DHT22;53289;45.602;11.904;2023-02-23T06:29:35;7.40;81.10
64817;DHT22;53289;45.602;11.904;2023-02-23T06:32:03;7.40;81.00
64817;DHT22;53289;45.602;11.904;2023-02-23T06:34:29;7.50;80.50
64817;DHT22;53289;45.602;11.904;2023-02-23T06:36:55;7.60;80.40
64817;DHT22;53289;45.602;11.904;2023-02-23T06:39:21;7.60;80.30
64817;DHT22;53289;45.602;11.904;2023-02-23T06:41:47;7.70;80.20
64817;DHT22;53289;45.602;11.904;2023-02-23T06:44:13;7.70;80.20
64817;DHT22;53289;45.602;11.904;2023-02-23T06:46:39;7.80;80.30
64817;DHT22;53289;45.602;11.904;2023-02-23T06:49:04;7.80;80.20
64817;DHT22;53289;45.602;11.904;2023-02-23T06:51:30;7.80;80.30
64817;DHT22;53289;45.602;11.904;2023-02-23T06:53:56;7.90;80.30
64817;DHT22;53289;45.602;11.904;2023-02-23T06:56:22;7.90;80.50
64817;DHT22;53289;45.602;11.904;2023-02-23T06:58:49;7.90;80.50
64817;DHT22;53289;45.602;11.904;2023-02-23T07:01:15;8.00;80.50
64817;DHT22;53289;45.602;11.904;2023-02-23T07:03:41;8.10;80.50
64817;DHT22;53289;45.602;11.904;2023-02-23T07:06:08;8.20;80.50
64817;DHT22;53289;45.602;11.904;2023-02-23T07:08:34;8.20;80.40
64817;DHT22;53289;45.602;11.904;2023-02-23T07:11:11;8.30;80.40
64817;DHT22;53289;45.602;11.904;2023-02-23T07:13:38;8.40;80.30
64817;DHT22;53289;45.602;11.904;2023-02-23T07:16:05;8.50;80.60
64817;DHT22;53289;45.602;11.904;2023-02-23T07:18:32;8.50;80.30
64817;DHT22;53289;45.602;11.904;2023-02-23T07:20:57;8.60;80.20
64817;DHT22;53289;45.602;11.904;2023-02-23T07:23:23;8.70;80.10
64817;DHT22;53289;45.602;11.904;2023-02-23T07:25:51;8.80;80.20
64817;DHT22;53289;45.602;11.904;2023-02-23T07:28:17;8.90;79.90
64817;DHT22;53289;45.602;11.904;2023-02-23T07:30:47;8.90;80.10
64817;DHT22;53289;45.602;11.904;2023-02-23T07:33:15;9.10;79.60
64817;DHT22;53289;45.602;11.904;2023-02-23T07:35:41;9.20;79.30
64817;DHT22;53289;45.602;11.904;2023-02-23T07:38:07;9.30;79.30
64817;DHT22;53289;45.602;11.904;2023-02-23T07:40:34;9.40;78.60
64817;DHT22;53289;45.602;11.904;2023-02-23T07:42:59;9.50;78.40
64817;DHT22;53289;45.602;11.904;2023-02-23T07:45:26;9.60;78.50
64817;DHT22;53289;45.602;11.904;2023-02-23T07:47:52;9.70;78.50
64817;DHT22;53289;45.602;11.904;2023-02-23T07:50:18;9.80;78.40
64817;DHT22;53289;45.602;11.904;2023-02-23T07:52:44;9.90;78.30
64817;DHT22;53289;45.602;11.904;2023-02-23T07:55:10;9.90;77.90
64817;DHT22;53289;45.602;11.904;2023-02-23T07:57:37;10.10;78.10
64817;DHT22;53289;45.602;11.904;2023-02-23T08:00:04;10.20;78.10
64817;DHT22;53289;45.602;11.904;2023-02-23T08:02:31;10.30;78.00
64817;DHT22;53289;45.602;11.904;2023-02-23T08:04:57;10.40;77.70
64817;DHT22;53289;45.602;11.904;2023-02-23T08:07:24;10.50;77.60
64817;DHT22;53289;45.602;11.904;2023-02-23T08:09:52;10.60;77.50
64817;DHT22;53289;45.602;11.904;2023-02-23T08:12:19;10.70;77.00
64817;DHT22;53289;45.602;11.904;2023-02-23T08:14:44;10.80;76.80
64817;DHT22;53289;45.602;11.904;2023-02-23T08:17:11;10.80;76.80
64817;DHT22;53289;45.602;11.904;2023-02-23T08:19:37;10.90;76.70
64817;DHT22;53289;45.602;11.904;2023-02-23T08:22:03;10.90;76.70
64817;DHT22;53289;45.602;11.904;2023-02-23T08:24:29;10.90;76.50
64817;DHT22;53289;45.602;11.904;2023-02-23T08:27:00;10.90;76.50
64817;DHT22;53289;45.602;11.904;2023-02-23T08:29:26;10.90;76.40
64817;DHT22;53289;45.602;11.904;2023-02-23T08:31:52;11.00;76.30
64817;DHT22;53289;45.602;11.904;2023-02-23T08:34:19;11.10;76.40
64817;DHT22;53289;45.602;11.904;2023-02-23T08:36:45;11.20;76.40
64817;DHT22;53289;45.602;11.904;2023-02-23T08:39:11;11.30;76.20
64817;DHT22;53289;45.602;11.904;2023-02-23T08:41:38;11.40;76.20
64817;DHT22;53289;45.602;11.904;2023-02-23T08:44:04;11.50;76.00
64817;DHT22;53289;45.602;11.904;2023-02-23T08:46:30;11.70;75.80
64817;DHT22;53289;45.602;11.904;2023-02-23T08:48:57;11.80;75.60
64817;DHT22;53289;45.602;11.904;2023-02-23T08:51:23;11.80;75.50
64817;DHT22;53289;45.602;11.904;2023-02-23T08:53:49;11.90;75.40
64817;DHT22;53289;45.602;11.904;2023-02-23T08:56:15;11.90;75.40
64817;DHT22;53289;45.602;11.904;2023-02-23T08:58:42;12.00;75.40
64817;DHT22;53289;45.602;11.904;2023-02-23T09:01:15;12.00;75.20
64817;DHT22;53289;45.602;11.904;2023-02-23T09:03:42;12.10;75.10
64817;DHT22;53289;45.602;11.904;2023-02-23T09:06:11;12.20;75.10
64817;DHT22;53289;45.602;11.904;2023-02-23T09:08:39;12.40;74.90
64817;DHT22;53289;45.602;11.904;2023-02-23T09:11:05;12.40;74.80
64817;DHT22;53289;45.602;11.904;2023-02-23T09:13:31;12.50;74.60
64817;DHT22;53289;45.602;11.904;2023-02-23T09:15:57;12.60;74.40
64817;DHT22;53289;45.602;11.904;2023-02-23T09:18:23;12.70;74.30
64817;DHT22;53289;45.602;11.904;2023-02-23T09:20:52;12.80;74.10
64817;DHT22;53289;45.602;11.904;2023-02-23T09:23:18;12.90;73.90
64817;DHT22;53289;45.602;11.904;2023-02-23T09:25:45;13.00;73.90
64817;DHT22;53289;45.602;11.904;2023-02-23T09:28:15;13.20;73.30
64817;DHT22;53289;45.602;11.904;2023-02-23T09:30:42;13.20;73.00
64817;DHT22;53289;45.602;11.904;2023-02-23T09:33:09;13.20;73.10
64817;DHT22;53289;45.602;11.904;2023-02-23T09:35:36;13.20;72.50
64817;DHT22;53289;45.602;11.904;2023-02-23T09:38:04;13.30;72.30
64817;DHT22;53289;45.602;11.904;2023-02-23T09:49:00;13.60;71.70
64817;DHT22;53289;45.602;11.904;2023-02-23T09:51:30;13.80;71.80
64817;DHT22;53289;45.602;11.904;2023-02-23T09:54:02;13.80;71.60
64817;DHT22;53289;45.602;11.904;2023-02-23T09:56:44;13.90;71.50
64817;DHT22;53289;45.602;11.904;2023-02-23T09:59:13;14.10;71.20
64817;DHT22;53289;45.602;11.904;2023-02-23T10:04:31;14.30;70.50
64817;DHT22;53289;45.602;11.904;2023-02-23T10:13:01;14.60;69.90
64817;DHT22;53289;45.602;11.904;2023-02-23T10:15:34;14.60;68.90
64817;DHT22;53289;45.602;11.904;2023-02-23T10:23:37;14.80;69.20
64817;DHT22;53289;45.602;11.904;2023-02-23T10:26:04;14.90;68.90
64817;DHT22;53289;45.602;11.904;2023-02-23T10:28:35;14.90;68.50
64817;DHT22;53289;45.602;11.904;2023-02-23T10:31:03;15.10;68.20
64817;DHT22;53289;45.602;11.904;2023-02-23T10:33:40;15.20;68.20
64817;DHT22;53289;45.602;11.904;2023-02-23T10:36:18;15.30;68.00
64817;DHT22;53289;45.602;11.904;2023-02-23T10:38:49;15.30;67.50
64817;DHT22;53289;45.602;11.904;2023-02-23T10:41:15;15.40;67.50
64817;DHT22;53289;45.602;11.904;2023-02-23T10:43:41;15.50;67.30
64817;DHT22;53289;45.602;11.904;2023-02-23T10:46:16;15.60;67.00
64817;DHT22;53289;45.602;11.904;2023-02-23T10:48:43;15.70;66.40
64817;DHT22;53289;45.602;11.904;2023-02-23T10:51:25;15.80;66.20
64817;DHT22;53289;45.602;11.904;2023-02-23T10:53:52;15.80;65.70
64817;DHT22;53289;45.602;11.904;2023-02-23T10:56:19;15.90;65.60
64817;DHT22;53289;45.602;11.904;2023-02-23T10:58:51;15.90;64.20
64817;DHT22;53289;45.602;11.904;2023-02-23T11:04:15;15.90;64.80
64817;DHT22;53289;45.602;11.904;2023-02-23T11:06:43;16.00;64.90
64817;DHT22;53289;45.602;11.904;2023-02-23T11:09:30;16.00;64.90
64817;DHT22;53289;45.602;11.904;2023-02-23T11:12:01;16.10;64.70
64817;DHT22;53289;45.602;11.904;2023-02-23T11:14:29;16.20;64.30
64817;DHT22;53289;45.602;11.904;2023-02-23T11:16:56;16.20;64.50
64817;DHT22;53289;45.602;11.904;2023-02-23T11:19:35;16.20;64.60
64817;DHT22;53289;45.602;11.904;2023-02-23T11:22:03;16.30;64.60
64817;DHT22;53289;45.602;11.904;2023-02-23T11:24:39;16.40;64.00
64817;DHT22;53289;45.602;11.904;2023-02-23T11:27:23;16.40;63.40
64817;DHT22;53289;45.602;11.904;2023-02-23T11:29:50;16.40;63.90
64817;DHT22;53289;45.602;11.904;2023-02-23T11:32:32;16.40;63.80
64817;DHT22;53289;45.602;11.904;2023-02-23T11:35:27;16.40;64.10
64817;DHT22;53289;45.602;11.904;2023-02-23T11:37:54;16.50;63.50
64817;DHT22;53289;45.602;11.904;2023-02-23T11:40:27;16.50;63.90
64817;DHT22;53289;45.602;11.904;2023-02-23T11:43:05;16.40;64.10
64817;DHT22;53289;45.602;11.904;2023-02-23T11:45:45;16.40;64.40
64817;DHT22;53289;45.602;11.904;2023-02-23T11:50:51;16.40;64.20
64817;DHT22;53289;45.602;11.904;2023-02-23T11:53:28;16.20;64.10
64817;DHT22;53289;45.602;11.904;2023-02-23T11:55:59;16.10;64.60
64817;DHT22;53289;45.602;11.904;2023-02-23T12:01:13;16.10;64.90
64817;DHT22;53289;45.602;11.904;2023-02-23T12:04:07;16.20;64.60
64817;DHT22;53289;45.602;11.904;2023-02-23T12:11:36;15.90;65.20
64817;DHT22;53289;45.602;11.904;2023-02-23T12:16:57;16.20;64.90
64817;DHT22;53289;45.602;11.904;2023-02-23T12:19:32;16.50;63.80
64817;DHT22;53289;45.602;11.904;2023-02-23T12:22:03;16.70;63.00
64817;DHT22;53289;45.602;11.904;2023-02-23T12:24:36;16.90;61.40
64817;DHT22;53289;45.602;11.904;2023-02-23T12:32:23;17.30;60.00
64817;DHT22;53289;45.602;11.904;2023-02-23T12:37:52;17.60;59.20
64817;DHT22;53289;45.602;11.904;2023-02-23T12:40:24;17.90;57.80
64817;DHT22;53289;45.602;11.904;2023-02-23T12:43:15;18.00;59.00
64817;DHT22;53289;45.602;11.904;2023-02-23T12:45:50;18.10;57.80
64817;DHT22;53289;45.602;11.904;2023-02-23T12:51:31;18.20;58.00
64817;DHT22;53289;45.602;11.904;2023-02-23T12:53:59;18.10;57.70
64817;DHT22;53289;45.602;11.904;2023-02-23T12:59:22;18.40;57.90
64817;DHT22;53289;45.602;11.904;2023-02-23T13:01:58;18.50;56.20
64817;DHT22;53289;45.602;11.904;2023-02-23T13:07:28;18.70;56.40
64817;DHT22;53289;45.602;11.904;2023-02-23T13:10:04;18.60;55.50
64817;DHT22;53289;45.602;11.904;2023-02-23T13:23:13;18.40;55.50
64817;DHT22;53289;45.602;11.904;2023-02-23T13:28:26;18.30;56.30
64817;DHT22;53289;45.602;11.904;2023-02-23T13:30:56;18.30;56.70
64817;DHT22;53289;45.602;11.904;2023-02-23T13:33:27;18.40;56.90
64817;DHT22;53289;45.602;11.904;2023-02-23T13:35:56;18.50;56.00
64817;DHT22;53289;45.602;11.904;2023-02-23T13:44:20;18.70;55.60
64817;DHT22;53289;45.602;11.904;2023-02-23T13:47:05;18.70;54.30
64817;DHT22;53289;45.602;11.904;2023-02-23T13:49:46;18.70;55.00
64817;DHT22;53289;45.602;11.904;2023-02-23T13:54:59;18.60;54.90
64817;DHT22;53289;45.602;11.904;2023-02-23T13:57:31;18.50;55.60
64817;DHT22;53289;45.602;11.904;2023-02-23T13:59:58;18.40;55.70
64817;DHT22;53289;45.602;11.904;2023-02-23T14:02:40;18.40;55.90
64817;DHT22;53289;45.602;11.904;2023-02-23T14:05:24;18.20;56.10
64817;DHT22;53289;45.602;11.904;2023-02-23T14:10:40;18.00;57.30
64817;DHT22;53289;45.602;11.904;2023-02-23T14:15:45;18.00;55.00
64817;DHT22;53289;45.602;11.904;2023-02-23T14:24:01;17.70;56.10
64817;DHT22;53289;45.602;11.904;2023-02-23T14:29:19;17.60;56.30
64817;DHT22;53289;45.602;11.904;2023-02-23T14:32:26;17.60;56.30
64817;DHT22;53289;45.602;11.904;2023-02-23T14:34:55;17.60;56.30
64817;DHT22;53289;45.602;11.904;2023-02-23T14:37:36;17.40;56.90
64817;DHT22;53289;45.602;11.904;2023-02-23T14:40:18;17.40;57.00
64817;DHT22;53289;45.602;11.904;2023-02-23T14:42:49;17.20;57.40
64817;DHT22;53289;45.602;11.904;2023-02-23T14:45:24;17.10;57.80
64817;DHT22;53289;45.602;11.904;2023-02-23T14:47:55;17.00;58.30
64817;DHT22;53289;45.602;11.904;2023-02-23T14:50:34;17.10;58.00
64817;DHT22;53289;45.602;11.904;2023-02-23T14:53:05;17.10;57.90
64817;DHT22;53289;45.602;11.904;2023-02-23T14:55:33;17.00;58.20
64817;DHT22;53289;45.602;11.904;2023-02-23T14:58:17;16.90;58.10
64817;DHT22;53289;45.602;11.904;2023-02-23T15:00:44;16.80;58.40
64817;DHT22;53289;45.602;11.904;2023-02-23T15:03:10;16.70;58.50
64817;DHT22;53289;45.602;11.904;2023-02-23T15:05:46;16.60;58.80
64817;DHT22;53289;45.602;11.904;2023-02-23T15:08:17;16.70;58.70
64817;DHT22;53289;45.602;11.904;2023-02-23T15:10:46;16.60;58.50
64817;DHT22;53289;45.602;11.904;2023-02-23T15:13:33;16.60;58.60
64817;DHT22;53289;45.602;11.904;2023-02-23T15:16:05;16.50;58.50
64817;DHT22;53289;45.602;11.904;2023-02-23T15:18:40;16.50;58.70
64817;DHT22;53289;45.602;11.904;2023-02-23T15:21:12;16.40;59.00
64817;DHT22;53289;45.602;11.904;2023-02-23T15:23:43;16.40;59.10
64817;DHT22;53289;45.602;11.904;2023-02-23T15:28:42;16.30;59.60
64817;DHT22;53289;45.602;11.904;2023-02-23T15:31:12;16.20;59.60
64817;DHT22;53289;45.602;11.904;2023-02-23T15:33:38;16.30;59.50
64817;DHT22;53289;45.602;11.904;2023-02-23T15:36:13;16.20;59.60
64817;DHT22;53289;45.602;11.904;2023-02-23T15:38:44;16.00;60.00
64817;DHT22;53289;45.602;11.904;2023-02-23T15:41:25;15.90;60.50
64817;DHT22;53289;45.602;11.904;2023-02-23T15:43:51;15.90;60.90
64817;DHT22;53289;45.602;11.904;2023-02-23T15:46:26;15.70;61.10
64817;DHT22;53289;45.602;11.904;2023-02-23T15:48:54;15.60;61.60
64817;DHT22;53289;45.602;11.904;2023-02-23T15:53:59;15.50;62.00
64817;DHT22;53289;45.602;11.904;2023-02-23T15:56:28;15.40;62.20
64817;DHT22;53289;45.602;11.904;2023-02-23T15:59:02;15.40;62.50
64817;DHT22;53289;45.602;11.904;2023-02-23T16:01:32;15.30;62.80
64817;DHT22;53289;45.602;11.904;2023-02-23T16:06:44;15.00;63.20
64817;DHT22;53289;45.602;11.904;2023-02-23T16:14:54;14.70;64.20
64817;DHT22;53289;45.602;11.904;2023-02-23T16:17:27;14.60;64.50
64817;DHT22;53289;45.602;11.904;2023-02-23T16:20:39;14.40;64.80
64817;DHT22;53289;45.602;11.904;2023-02-23T16:23:36;14.40;65.00
64817;DHT22;53289;45.602;11.904;2023-02-23T16:26:09;14.20;65.50
64817;DHT22;53289;45.602;11.904;2023-02-23T16:28:41;14.00;65.70
64817;DHT22;53289;45.602;11.904;2023-02-23T16:31:08;13.90;66.00
64817;DHT22;53289;45.602;11.904;2023-02-23T16:33:45;13.70;66.30
64817;DHT22;53289;45.602;11.904;2023-02-23T16:36:20;13.70;66.70
64817;DHT22;53289;45.602;11.904;2023-02-23T16:38:59;13.50;66.90
64817;DHT22;53289;45.602;11.904;2023-02-23T16:41:29;13.40;67.20
64817;DHT22;53289;45.602;11.904;2023-02-23T16:44:02;13.40;67.50
64817;DHT22;53289;45.602;11.904;2023-02-23T16:49:32;13.40;67.30
64817;DHT22;53289;45.602;11.904;2023-02-23T16:51:59;13.20;67.40
64817;DHT22;53289;45.602;11.904;2023-02-23T16:54:26;13.10;67.50
64817;DHT22;53289;45.602;11.904;2023-02-23T16:56:54;13.00;67.60
64817;DHT22;53289;45.602;11.904;2023-02-23T16:59:21;12.90;67.70
64817;DHT22;53289;45.602;11.904;2023-02-23T17:01:48;12.90;67.90
64817;DHT22;53289;45.602;11.904;2023-02-23T17:04:17;12.70;68.00
64817;DHT22;53289;45.602;11.904;2023-02-23T17:06:44;12.60;68.30
64817;DHT22;53289;45.602;11.904;2023-02-23T17:09:17;12.40;68.50
64817;DHT22;53289;45.602;11.904;2023-02-23T17:11:43;12.30;68.90
64817;DHT22;53289;45.602;11.904;2023-02-23T17:14:22;12.10;69.10
64817;DHT22;53289;45.602;11.904;2023-02-23T17:16:49;11.90;69.50
64817;DHT22;53289;45.602;11.904;2023-02-23T17:19:16;11.90;69.80
64817;DHT22;53289;45.602;11.904;2023-02-23T17:21:44;11.70;70.20
64817;DHT22;53289;45.602;11.904;2023-02-23T17:24:10;11.70;70.70
64817;DHT22;53289;45.602;11.904;2023-02-23T17:26:36;11.70;70.90
64817;DHT22;53289;45.602;11.904;2023-02-23T17:29:04;11.70;70.90
64817;DHT22;53289;45.602;11.904;2023-02-23T17:31:30;11.60;71.00
64817;DHT22;53289;45.602;11.904;2023-02-23T17:33:56;11.50;71.00
64817;DHT22;53289;45.602;11.904;2023-02-23T17:36:22;11.50;71.10
64817;DHT22;53289;45.602;11.904;2023-02-23T17:38:48;11.40;71.10
64817;DHT22;53289;45.602;11.904;2023-02-23T17:41:17;11.40;71.20
64817;DHT22;53289;45.602;11.904;2023-02-23T17:43:44;11.30;71.30
64817;DHT22;53289;45.602;11.904;2023-02-23T17:46:11;11.20;71.50
64817;DHT22;53289;45.602;11.904;2023-02-23T17:48:37;11.10;71.50
64817;DHT22;53289;45.602;11.904;2023-02-23T17:51:09;11.00;71.70
64817;DHT22;53289;45.602;11.904;2023-02-23T17:53:37;10.90;72.00
64817;DHT22;53289;45.602;11.904;2023-02-23T17:56:04;10.80;72.10
64817;DHT22;53289;45.602;11.904;2023-02-23T17:58:30;10.70;72.70
64817;DHT22;53289;45.602;11.904;2023-02-23T18:00:58;10.60;72.70
64817;DHT22;53289;45.602;11.904;2023-02-23T18:03:26;10.50;72.80
64817;DHT22;53289;45.602;11.904;2023-02-23T18:06:04;10.40;72.90
64817;DHT22;53289;45.602;11.904;2023-02-23T18:08:30;10.40;73.00
64817;DHT22;53289;45.602;11.904;2023-02-23T18:10:57;10.30;73.10
64817;DHT22;53289;45.602;11.904;2023-02-23T18:13:25;10.30;73.20
64817;DHT22;53289;45.602;11.904;2023-02-23T18:15:54;10.20;73.40